Time;durP1;ratioP1;P1;durP2;ratioP2;P2;SDS_P1;SDS_P2;PMS_P1;PMS_P2;Temp;Humidity;BMP_temperature;BMP_pressure;BME280_temperature;BME280_humidity;BME280_pressure;Samples;Min_cycle;Max_cycle;Signal;HPM_P1;HPM_P2
2021/11/13 00:03:55;;;;;;;18.50;9.10;;;;;;;5.03;82.65;100182.41;227985;1199;139667;-69
2021/11/13 00:08:58;;;;;;;40.90;15.20;;;;;;;5.02;82.75;100184.34;229226;1199;141717;-72
2021/11/13 00:14:02;;;;;;;35.80;16.60;;;;;;;5.05;82.69;100179.38;229033;1199;140528;-69
2021/11/13 00:19:06;;;;;;;40.50;17.10;;;;;;;5.03;82.47;100178.21;226197;1199;140418;-68
2021/11/13 00:24:30;;;;;;;44.00;17.00;;;;;;;5.02;82.72;100181.64;227420;1198;140653;-69
2021/11/13 00:29:42;;;;;;;36.20;15.00;;;;;;;5.04;82.72;100172.79;226849;1198;139974;-68
2021/11/13 00:34:45;;;;;;;33.00;14.20;;;;;;;5.02;82.83;100163.86;228716;1198;140116;-69
2021/11/13 00:40:15;;;;;;;45.90;19.10;;;;;;;4.98;82.91;100161.87;227169;1198;140878;-68
2021/11/13 00:45:24;;;;;;;39.20;17.20;;;;;;;4.98;82.83;100157.31;226668;1198;140274;-68
2021/11/13 00:51:10;;;;;;;36.30;15.90;;;;;;;4.97;82.83;100153.77;226805;1198;140259;-68
2021/11/13 00:56:17;;;;;;;37.80;16.80;;;;;;;4.92;82.76;100145.02;226287;1198;140334;-68
2021/11/13 01:01:53;;;;;;;43.90;18.70;;;;;;;4.90;82.85;100144.42;226739;1198;140829;-69
2021/11/13 01:07:09;;;;;;;45.70;21.50;;;;;;;4.90;82.75;100136.95;227735;1198;140409;-69
2021/11/13 01:12:13;;;;;;;35.00;15.80;;;;;;;4.85;82.75;100132.13;226324;1198;140205;-68
2021/11/13 01:17:25;;;;;;;49.20;20.50;;;;;;;4.84;82.71;100126.18;225949;1198;139833;-69
2021/11/13 01:22:36;;;;;;;41.10;17.50;;;;;;;4.88;82.85;100123.41;227106;1199;140111;-68
2021/11/13 01:27:41;;;;;;;39.40;20.30;;;;;;;4.83;82.86;100123.12;227791;1200;140228;-69
2021/11/13 01:32:45;;;;;;;43.60;20.50;;;;;;;4.84;82.78;100122.32;226959;1199;139496;-68
2021/11/13 01:37:48;;;;;;;48.10;20.30;;;;;;;4.85;82.72;100122.32;227528;1200;140538;-68
2021/11/13 01:42:57;;;;;;;45.40;23.20;;;;;;;4.81;82.76;100126.88;227103;1199;139464;-69
2021/11/13 01:48:08;;;;;;;42.60;21.80;;;;;;;4.80;82.67;100122.48;228370;1199;141624;-69
2021/11/13 01:53:11;;;;;;;39.00;19.00;;;;;;;4.81;82.63;100133.55;228347;1199;140920;-69
2021/11/13 01:58:17;;;;;;;46.90;22.70;;;;;;;4.77;82.67;100127.52;228938;1192;139914;-69
2021/11/13 02:03:23;;;;;;;44.40;20.30;;;;;;;4.77;82.61;100120.92;229049;1198;139862;-69
2021/11/13 02:08:26;;;;;;;32.10;17.60;;;;;;;4.78;82.67;100126.39;227671;1198;139642;-69
2021/11/13 02:13:29;;;;;;;50.20;24.50;;;;;;;4.76;82.63;100117.80;229120;1198;139827;-69
2021/11/13 02:18:32;;;;;;;38.90;19.30;;;;;;;4.75;82.59;100106.85;227713;1198;140167;-69
2021/11/13 02:23:44;;;;;;;38.40;19.60;;;;;;;4.73;82.53;100102.69;227732;1199;140786;-68
2021/11/13 02:28:49;;;;;;;40.30;17.80;;;;;;;4.71;82.55;100086.17;226862;1198;139860;-69
2021/11/13 02:33:57;;;;;;;22.80;13.10;;;;;;;4.69;82.69;100088.15;227749;1199;140539;-69
2021/11/13 02:39:07;;;;;;;47.70;23.30;;;;;;;4.62;82.14;100091.52;226158;1199;139514;-68
2021/11/13 02:44:14;;;;;;;40.20;19.00;;;;;;;4.56;82.40;100096.11;227344;1200;140339;-68
2021/11/13 02:49:26;;;;;;;42.60;19.30;;;;;;;4.53;82.42;100097.94;227906;1191;139595;-68
2021/11/13 02:54:42;;;;;;;27.40;13.70;;;;;;;4.48;82.71;100096.30;226203;1199;140303;-68
2021/11/13 03:00:16;;;;;;;;;;;;;;;;;;;;;
2021/11/13 03:05:49;;;;;;;44.10;21.50;;;;;;;4.40;82.45;100061.52;226147;1199;140984;-68
2021/11/13 03:11:14;;;;;;;32.80;17.70;;;;;;;4.36;82.79;100055.02;227696;1198;140904;-69
2021/11/13 03:16:20;;;;;;;36.30;16.90;;;;;;;4.32;82.52;100047.46;226311;1198;140895;-68
2021/11/13 03:21:42;;;;;;;44.60;19.20;;;;;;;4.26;82.43;100039.91;226352;1198;142045;-67
2021/11/13 03:26:47;;;;;;;37.80;19.40;;;;;;;4.18;82.64;100038.84;227283;1198;150288;-68
2021/11/13 03:32:19;;;;;;;40.20;19.80;;;;;;;4.17;82.77;100042.02;228010;1198;139663;-69
2021/11/13 03:37:23;;;;;;;40.90;20.90;;;;;;;4.20;82.64;100049.54;226637;1200;140558;-69
2021/11/13 03:42:34;;;;;;;44.40;21.50;;;;;;;4.19;82.89;100056.35;227192;1200;140166;-68
2021/11/13 03:47:38;;;;;;;48.90;18.90;;;;;;;4.19;82.99;100058.58;228198;1198;139994;-68
2021/11/13 03:52:47;;;;;;;26.70;15.50;;;;;;;4.22;82.74;100055.48;227532;1198;139934;-68
2021/11/13 03:58:03;;;;;;;35.20;18.30;;;;;;;4.17;82.81;100062.25;228395;1198;140789;-68
2021/11/13 04:03:09;;;;;;;37.40;18.40;;;;;;;4.13;82.76;100058.10;228720;1198;139242;-68
2021/11/13 04:08:11;;;;;;;34.50;18.10;;;;;;;4.11;82.67;100059.58;228924;1198;141131;-69
2021/11/13 04:13:15;;;;;;;31.00;14.10;;;;;;;4.10;82.56;100047.98;228979;1199;140995;-69
2021/11/13 04:18:18;;;;;;;41.50;18.40;;;;;;;4.07;82.47;100049.90;229122;1198;141169;-71
2021/11/13 04:23:25;;;;;;;37.00;19.90;;;;;;;4.07;82.57;100049.33;226977;1198;140876;-69
2021/11/13 04:28:54;;;;;;;;;;;;;;;;;;;;;
2021/11/13 04:34:25;;;;;;;;;;;;;;;;;;;;;
2021/11/13 04:39:29;;;;;;;55.00;21.10;;;;;;;4.10;82.81;100044.22;227904;1200;141706;-68
2021/11/13 04:44:38;;;;;;;47.30;23.10;;;;;;;4.06;82.82;100039.55;227181;1199;140173;-68
2021/11/13 04:49:46;;;;;;;37.80;18.20;;;;;;;4.06;82.99;100037.44;226490;1198;140633;-68
2021/11/13 04:55:03;;;;;;;32.50;18.80;;;;;;;4.08;82.79;100034.82;226781;1200;140387;-68
2021/11/13 05:00:12;;;;;;;42.50;20.50;;;;;;;4.04;82.90;100031.36;226341;1200;244723;-68
2021/11/13 05:05:16;;;;;;;27.70;13.40;;;;;;;4.00;83.32;100030.49;226219;1198;143299;-67
2021/11/13 05:10:20;;;;;;;48.80;21.00;;;;;;;4.01;83.33;100030.38;227270;1200;141711;-68
2021/11/13 05:15:24;;;;;;;52.50;21.70;;;;;;;4.04;83.34;100021.05;226062;1198;143743;-68
2021/11/13 05:20:27;;;;;;;37.50;17.70;;;;;;;4.05;83.40;100017.94;226669;1198;140147;-68
2021/11/13 05:25:33;;;;;;;41.50;20.70;;;;;;;4.02;83.48;100015.46;227727;1199;139986;-68
2021/11/13 05:30:36;;;;;;;39.60;18.80;;;;;;;4.00;83.17;100014.47;226592;1200;141416;-68
2021/11/13 05:35:39;;;;;;;28.80;14.00;;;;;;;4.00;83.27;100017.84;226907;1199;231332;-68
2021/11/13 05:40:44;;;;;;;36.40;18.40;;;;;;;3.97;83.29;100027.92;227191;1199;140538;-67
2021/11/13 05:45:48;;;;;;;41.70;18.20;;;;;;;4.00;83.56;100032.64;227567;1198;232159;-68
2021/11/13 05:51:07;;;;;;;;;;;;;;;;;;;;;
2021/11/13 05:56:44;;;;;;;40.40;18.00;;;;;;;3.98;83.25;100038.27;226857;1199;142329;-68
2021/11/13 06:02:07;;;;;;;;;;;;;;;;;;;;;
2021/11/13 06:07:11;;;;;;;40.40;17.00;;;;;;;3.98;83.33;100048.21;229055;1198;142060;-67
2021/11/13 06:12:17;;;;;;;42.20;19.40;;;;;;;3.96;83.28;100049.27;228390;1199;139602;-67
2021/11/13 06:17:22;;;;;;;40.80;18.60;;;;;;;3.99;83.39;100054.02;228987;1199;139891;-68
2021/11/13 06:22:25;;;;;;;44.00;21.40;;;;;;;4.04;83.20;100065.63;229102;1198;140090;-69
2021/11/13 06:27:28;;;;;;;45.50;21.40;;;;;;;4.11;83.16;100071.05;228675;1198;141297;-68
2021/11/13 06:33:11;;;;;;;36.30;19.00;;;;;;;4.13;83.29;100066.58;226587;1199;139950;-68
2021/11/13 06:38:17;;;;;;;46.80;19.10;;;;;;;4.15;83.29;100073.05;227531;1198;140010;-68
2021/11/13 06:43:55;;;;;;;44.60;21.10;;;;;;;4.20;83.27;100070.77;226447;1199;139875;-68
2021/11/13 06:48:58;;;;;;;34.50;19.60;;;;;;;4.21;83.37;100073.27;227284;1198;140348;-67
2021/11/13 06:54:01;;;;;;;47.10;21.40;;;;;;;4.24;83.46;100075.29;227331;1198;139523;-67
2021/11/13 06:59:04;;;;;;;43.80;21.30;;;;;;;4.31;83.10;100074.69;226499;1198;139933;-67
2021/11/13 07:04:38;;;;;;;37.70;18.80;;;;;;;4.32;83.38;100071.09;226303;1199;142014;-68
2021/11/13 07:09:42;;;;;;;44.60;20.70;;;;;;;4.39;83.35;100077.67;227078;1199;139579;-68
2021/11/13 07:14:51;;;;;;;36.10;19.40;;;;;;;4.51;83.66;100084.23;227084;1199;140667;-68
2021/11/13 07:19:55;;;;;;;36.20;19.10;;;;;;;4.60;83.29;100086.87;226339;1199;140673;-68
2021/11/13 07:24:57;;;;;;;47.80;21.90;;;;;;;4.57;83.19;100083.52;228087;1199;140487;-69
2021/11/13 07:30:08;;;;;;;41.90;21.90;;;;;;;4.55;82.80;100080.06;228775;1200;140338;-67
2021/11/13 07:35:33;;;;;;;80.50;39.70;;;;;;;4.62;83.28;100077.79;228624;1199;140264;-67
2021/11/13 07:40:38;;;;;;;63.90;32.50;;;;;;;4.75;83.66;100078.46;227967;1200;206303;-67
2021/11/13 07:45:42;;;;;;;40.20;19.60;;;;;;;4.87;83.16;100078.42;227396;1199;140039;-67
2021/11/13 07:50:49;;;;;;;43.70;22.60;;;;;;;4.93;82.97;100075.70;228537;1199;140660;-67
2021/11/13 07:55:53;;;;;;;39.70;20.40;;;;;;;4.97;82.75;100075.36;226374;1200;140345;-68
2021/11/13 08:01:00;;;;;;;40.00;20.10;;;;;;;5.10;82.78;100066.38;227206;1199;139696;-68
2021/11/13 08:06:23;;;;;;;40.30;20.60;;;;;;;5.36;82.68;100063.93;226573;1199;141407;-67
2021/11/13 08:11:26;;;;;;;30.80;17.20;;;;;;;5.60;83.00;100055.65;229005;1199;139961;-71
2021/11/13 08:16:29;;;;;;;36.30;18.80;;;;;;;5.84;82.37;100048.89;229151;1199;140120;-72
2021/11/13 08:21:33;;;;;;;32.70;17.20;;;;;;;6.04;82.02;100050.22;228774;1199;160479;-68
2021/11/13 08:26:36;;;;;;;25.10;15.10;;;;;;;6.14;82.08;100051.59;228882;1199;139690;-70
2021/11/13 08:31:46;;;;;;;44.60;23.40;;;;;;;6.22;82.00;100049.66;227444;1199;139759;-68
2021/11/13 08:36:49;;;;;;;36.80;19.50;;;;;;;6.42;82.00;100045.77;226711;1200;142016;-67
2021/11/13 08:42:03;;;;;;;27.10;14.70;;;;;;;6.64;81.97;100044.96;227700;1199;140385;-68
2021/11/13 08:47:13;;;;;;;37.20;20.10;;;;;;;6.85;81.39;100042.50;228178;1200;139471;-71
2021/11/13 08:52:21;;;;;;;38.60;22.20;;;;;;;7.08;81.56;100035.37;228316;1199;140365;-71
2021/11/13 08:57:25;;;;;;;39.90;20.30;;;;;;;7.37;81.57;100032.40;229095;1199;140285;-72
2021/11/13 09:02:29;;;;;;;42.00;21.60;;;;;;;7.57;80.56;100037.60;228998;1199;141326;-69
2021/11/13 09:07:39;;;;;;;34.10;18.60;;;;;;;7.64;79.94;100039.70;227116;1200;139930;-68
2021/11/13 09:12:43;;;;;;;36.20;21.60;;;;;;;7.62;79.46;100033.79;226273;1200;139993;-68
2021/11/13 09:18:11;;;;;;;38.40;22.00;;;;;;;7.61;79.47;100033.30;227194;1199;139948;-69
2021/11/13 09:24:07;;;;;;;37.40;19.30;;;;;;;7.55;78.88;100027.11;226393;1199;140370;-69
2021/11/13 09:29:10;;;;;;;40.00;20.60;;;;;;;7.22;78.53;100023.11;226771;1199;141487;-69
2021/11/13 09:34:47;;;;;;;37.00;19.10;;;;;;;6.91;77.81;100023.75;226971;1200;140245;-68
2021/11/13 09:39:51;;;;;;;38.10;21.10;;;;;;;6.70;78.45;100021.63;226702;1199;140563;-68
2021/11/13 09:45:21;;;;;;;40.40;21.40;;;;;;;6.63;78.62;100021.83;228553;1200;140362;-69
2021/11/13 09:50:29;;;;;;;44.20;23.30;;;;;;;6.76;79.45;100023.98;228961;1199;140147;-70
2021/11/13 09:55:36;;;;;;;37.60;20.90;;;;;;;7.20;79.86;100021.25;228517;1199;139807;-70
2021/11/13 10:00:41;;;;;;;36.80;20.80;;;;;;;7.47;79.53;100025.58;226622;1200;144520;-69
2021/11/13 10:05:53;;;;;;;39.20;23.80;;;;;;;7.60;78.90;100028.73;228260;1199;140005;-71
2021/11/13 10:11:21;;;;;;;37.30;23.50;;;;;;;7.67;78.77;100024.33;228929;1199;142492;-71
2021/11/13 10:16:53;;;;;;;37.10;20.60;;;;;;;7.81;78.59;100019.02;229058;1200;142043;-71
2021/11/13 10:21:58;;;;;;;51.60;27.50;;;;;;;7.82;77.89;100015.15;228887;1199;139542;-71
2021/11/13 10:27:42;;;;;;;;;;;;;;;;;;;;;
2021/11/13 10:33:05;;;;;;;40.50;22.10;;;;;;;7.83;77.76;100017.60;229100;1199;140032;-70
2021/11/13 10:38:28;;;;;;;39.00;23.50;;;;;;;7.96;77.90;100015.98;228347;1199;141086;-71
2021/11/13 10:43:35;;;;;;;35.80;21.30;;;;;;;8.16;77.87;100013.41;226668;1200;139660;-71
2021/11/13 10:49:20;;;;;;;46.20;24.30;;;;;;;8.21;77.71;100011.42;227829;1199;144008;-69
2021/11/13 10:55:25;;;;;;;;;;;;;;;;;;;;;
2021/11/13 11:00:42;;;;;;;40.40;23.00;;;;;;;8.44;77.61;100008.20;227655;1199;139145;-69
2021/11/13 11:06:16;;;;;;;43.00;26.40;;;;;;;8.62;77.71;100004.33;228258;1200;141948;-68
2021/11/13 11:11:58;;;;;;;;;;;;;;;;;;;;;
2021/11/13 11:17:30;;;;;;;38.60;24.00;;;;;;;8.69;76.51;99999.81;227713;1199;141904;-70
2021/11/13 11:22:34;;;;;;;45.50;26.80;;;;;;;8.77;76.62;99994.77;226959;1199;140095;-69
2021/11/13 11:28:23;;;;;;;34.90;22.00;;;;;;;8.98;76.72;99992.95;226987;1200;140265;-69
2021/11/13 11:33:38;;;;;;;36.70;20.40;;;;;;;9.11;76.27;99990.98;226715;1199;140086;-69
2021/11/13 11:38:43;;;;;;;45.90;24.50;;;;;;;9.19;76.23;99982.65;226815;1200;236242;-69
2021/11/13 11:43:46;;;;;;;37.30;20.30;;;;;;;9.25;75.71;99984.36;226073;1200;140385;-68
2021/11/13 11:48:56;;;;;;;37.30;20.10;;;;;;;9.16;75.33;99978.40;226358;1199;142235;-68
2021/11/13 11:54:07;;;;;;;45.60;24.20;;;;;;;8.94;75.08;99977.90;228348;1199;140136;-68
2021/11/13 11:59:19;;;;;;;41.50;25.60;;;;;;;8.81;75.19;99973.69;226117;1199;140228;-68
2021/11/13 12:04:25;;;;;;;39.70;25.10;;;;;;;8.84;75.41;99977.56;226248;1200;159662;-69
2021/11/13 12:10:04;;;;;;;39.70;24.10;;;;;;;8.78;75.17;99978.25;229001;1193;139484;-70
2021/11/13 12:15:13;;;;;;;47.30;25.60;;;;;;;8.62;74.76;99976.94;228992;1200;139428;-68
2021/11/13 12:20:24;;;;;;;46.00;27.20;;;;;;;8.50;74.48;99976.13;228998;1199;140372;-69
2021/11/13 12:25:33;;;;;;;36.50;22.40;;;;;;;8.45;74.77;99980.98;229061;1199;140360;-69
2021/11/13 12:31:26;;;;;;;40.80;21.70;;;;;;;8.39;74.48;99986.45;228962;1199;140125;-69
2021/11/13 12:36:36;;;;;;;46.20;27.80;;;;;;;8.51;74.87;99981.65;226290;1199;139570;-68
2021/11/13 12:42:06;;;;;;;32.90;20.80;;;;;;;8.60;74.68;99980.50;227363;1199;140504;-68
2021/11/13 12:47:44;;;;;;;;;;;;;;;;;;;;;
2021/11/13 12:52:53;;;;;;;40.50;22.40;;;;;;;8.35;74.43;99977.11;226268;1199;141902;-73
2021/11/13 12:58:00;;;;;;;47.30;27.40;;;;;;;8.15;74.20;99973.70;227690;1200;139876;-73
2021/11/13 13:03:21;;;;;;;;;;;;;;;;;;;;;
2021/11/13 13:08:46;;;;;;;;;;;;;;;;;;;;;
2021/11/13 13:14:04;;;;;;;43.70;25.40;;;;;;;7.67;74.33;99969.84;226851;1199;141127;-71
2021/11/13 13:19:56;;;;;;;38.30;23.80;;;;;;;7.53;74.57;99970.83;227981;1199;139906;-70
2021/11/13 13:25:07;;;;;;;53.30;30.00;;;;;;;7.48;74.82;99967.63;226983;1200;141554;-70
2021/11/13 13:30:15;;;;;;;57.20;34.30;;;;;;;7.44;74.82;99967.23;228023;1199;139858;-71
2021/11/13 13:35:17;;;;;;;51.50;29.80;;;;;;;7.35;74.95;99972.83;226621;1200;162448;-71
2021/11/13 13:41:00;;;;;;;56.70;31.00;;;;;;;7.21;74.75;99977.31;227854;1199;139295;-71
2021/11/13 13:46:39;;;;;;;50.90;31.80;;;;;;;7.16;75.26;99978.55;228079;1200;141390;-68
2021/11/13 13:52:09;;;;;;;48.20;28.80;;;;;;;7.02;75.03;99978.61;228415;1200;140912;-68
2021/11/13 13:57:18;;;;;;;38.60;23.50;;;;;;;6.80;75.30;99977.40;226528;1200;139419;-68
2021/11/13 14:03:08;;;;;;;;;;;;;;;;;;;;;
2021/11/13 14:08:33;;;;;;;46.70;28.30;;;;;;;6.54;75.51;99983.13;227158;1200;140723;-68
2021/11/13 14:13:38;;;;;;;37.50;23.90;;;;;;;6.38;75.30;99982.17;229202;1200;139170;-68
2021/11/13 14:18:43;;;;;;;53.90;30.50;;;;;;;6.23;75.75;99972.45;228098;1200;140587;-69
2021/11/13 14:23:47;;;;;;;50.50;29.90;;;;;;;6.14;75.74;99980.05;228936;1200;140721;-68
2021/11/13 14:28:57;;;;;;;55.10;30.20;;;;;;;6.08;75.98;99980.70;229071;1200;141312;-68
2021/11/13 14:34:16;;;;;;;39.60;22.00;;;;;;;6.00;76.53;99974.27;228689;1200;139103;-69
2021/11/13 14:39:43;;;;;;;56.20;32.90;;;;;;;5.89;76.19;99973.69;228763;1199;139844;-72
2021/11/13 14:44:58;;;;;;;;;;;;;;;5.83;76.22;99968.23;226318;1200;164301;-71
2021/11/13 14:50:19;;;;;;;54.20;32.10;;;;;;;5.66;76.30;99972.61;227599;1199;128097;-69
2021/11/13 14:55:28;;;;;;;54.60;31.60;;;;;;;5.50;76.51;99965.74;227257;1200;139894;-68
2021/11/13 15:00:35;;;;;;;61.40;32.30;;;;;;;5.35;76.75;99968.06;228131;1200;140272;-68
2021/11/13 15:05:51;;;;;;;;;;;;;;;5.29;76.79;99971.80;226485;1200;141338;-70
2021/11/13 15:11:33;;;;;;;66.80;36.10;;;;;;;5.16;76.83;99981.77;227169;1200;125693;-67
2021/11/13 15:16:43;;;;;;;68.70;36.90;;;;;;;5.03;77.34;99980.80;227747;1200;140385;-68
2021/11/13 15:22:14;;;;;;;;;;;;;;;;;;;;;
2021/11/13 15:27:26;;;;;;;76.90;42.70;;;;;;;4.94;77.20;99974.13;226904;1200;140605;-68
2021/11/13 15:32:36;;;;;;;60.80;33.80;;;;;;;4.87;77.56;99976.46;226651;1200;140383;-68
2021/11/13 15:37:42;;;;;;;64.90;35.60;;;;;;;4.79;77.67;99979.08;226716;1200;162154;-67
2021/11/13 15:42:49;;;;;;;76.60;37.80;;;;;;;4.69;78.14;99985.44;227211;1199;151414;-68
2021/11/13 15:48:36;;;;;;;73.70;39.20;;;;;;;4.70;78.02;99987.89;226404;1198;141898;-68
2021/11/13 15:54:08;;;;;;;80.00;42.30;;;;;;;4.67;78.10;99988.59;227041;1200;139597;-68
2021/11/13 15:59:48;;;;;;;89.40;40.30;;;;;;;4.63;78.78;99992.46;228054;1199;139746;-68
2021/11/13 16:04:50;;;;;;;;;;;;;;;4.64;78.52;99986.02;227564;1200;139502;-69
2021/11/13 16:09:57;;;;;;;75.30;38.40;;;;;;;4.64;78.79;99984.09;229892;1199;126979;-72
2021/11/13 16:15:00;;;;;;;53.50;29.80;;;;;;;4.66;78.91;99980.17;228275;1199;140125;-68
2021/11/13 16:20:07;;;;;;;72.00;36.10;;;;;;;4.69;78.82;99985.23;227708;1199;139214;-71
2021/11/13 16:25:14;;;;;;;69.60;37.00;;;;;;;4.71;78.79;99987.05;228968;1199;140889;-68
2021/11/13 16:30:20;;;;;;;61.50;35.30;;;;;;;4.76;78.84;99993.75;228020;1200;140001;-68
2021/11/13 16:35:23;;;;;;;69.00;36.20;;;;;;;4.80;79.06;99994.20;227979;1200;140033;-69
2021/11/13 16:40:49;;;;;;;73.40;37.80;;;;;;;4.78;78.74;99991.30;226647;1199;139188;-69
2021/11/13 16:45:58;;;;;;;80.80;42.00;;;;;;;4.78;78.93;99998.16;227817;1200;139312;-70
2021/11/13 16:51:09;;;;;;;82.00;41.60;;;;;;;4.80;79.15;100003.98;227316;1199;140205;-69
2021/11/13 16:56:24;;;;;;;77.00;38.00;;;;;;;4.79;79.05;100005.77;228386;1199;139826;-67
2021/11/13 17:01:31;;;;;;;81.60;37.60;;;;;;;4.76;78.95;100005.98;226306;1200;140589;-68
2021/11/13 17:07:15;;;;;;;77.80;42.10;;;;;;;4.78;79.13;100009.34;227151;1200;140029;-67
2021/11/13 17:12:19;;;;;;;63.80;30.50;;;;;;;4.83;79.58;100014.45;225976;1200;139902;-69
2021/11/13 17:17:23;;;;;;;79.10;37.40;;;;;;;4.82;79.28;100010.27;226172;1199;140466;-69
2021/11/13 17:22:54;;;;;;;;;;;;;;;;;;;;;
2021/11/13 17:28:08;;;;;;;77.80;37.40;;;;;;;4.89;79.45;100014.75;226546;1200;140213;-69
2021/11/13 17:33:35;;;;;;;81.20;40.50;;;;;;;4.88;79.94;100022.59;227404;1200;141117;-68
2021/11/13 17:38:59;;;;;;;;;;;;;;;;;;;;;
2021/11/13 17:44:16;;;;;;;75.10;41.90;;;;;;;4.95;79.39;100033.44;226809;1199;162690;-69
2021/11/13 17:49:20;;;;;;;80.40;43.10;;;;;;;4.92;79.32;100029.23;227662;1199;142705;-70
2021/11/13 17:54:28;;;;;;;74.40;36.70;;;;;;;4.85;79.58;100036.88;226740;1200;140638;-68
2021/11/13 17:59:39;;;;;;;77.10;36.80;;;;;;;4.86;79.47;100039.24;226623;1200;140627;-70
2021/11/13 18:04:59;;;;;;;69.40;39.40;;;;;;;4.92;79.47;100039.59;228029;1199;141197;-71
2021/11/13 18:10:07;;;;;;;85.00;41.40;;;;;;;4.93;79.41;100045.13;227420;1200;151386;-68
2021/11/13 18:15:12;;;;;;;;;;;;;;;4.89;79.52;100040.31;229170;1199;140196;-70
2021/11/13 18:20:21;;;;;;;82.10;39.40;;;;;;;4.81;79.40;100038.66;229807;1200;125615;-70
2021/11/13 18:25:36;;;;;;;68.80;32.50;;;;;;;4.81;79.61;100041.95;228822;1199;139269;-69
2021/11/13 18:30:40;;;;;;;77.10;36.60;;;;;;;4.87;79.37;100047.22;228839;1199;141518;-69
2021/11/13 18:35:44;;;;;;;62.70;33.80;;;;;;;4.89;79.29;100048.35;228098;1199;141122;-70
2021/11/13 18:40:54;;;;;;;68.20;36.10;;;;;;;4.82;79.23;100048.39;227556;1199;140891;-73
2021/11/13 18:46:11;;;;;;;78.70;34.20;;;;;;;4.83;79.17;100042.17;226170;1200;140979;-70
2021/11/13 18:51:16;;;;;;;77.20;36.70;;;;;;;4.85;79.39;100042.20;227209;1200;143004;-68
2021/11/13 18:56:19;;;;;;;78.20;38.20;;;;;;;4.85;79.28;100046.42;227470;1200;142007;-67
2021/11/13 19:01:22;;;;;;;78.80;41.10;;;;;;;4.77;79.15;100047.20;226356;1200;141447;-67
2021/11/13 19:06:35;;;;;;;82.40;40.80;;;;;;;4.67;79.08;100051.64;226300;1200;140397;-68
2021/11/13 19:11:39;;;;;;;68.50;37.10;;;;;;;4.64;79.19;100052.17;226947;1199;140036;-67
2021/11/13 19:16:43;;;;;;;66.70;31.70;;;;;;;4.60;79.12;100050.04;226655;1199;141747;-67
2021/11/13 19:22:04;;;;;;;58.80;32.00;;;;;;;4.46;79.16;100051.64;226467;1199;139972;-68
2021/11/13 19:27:14;;;;;;;72.20;38.80;;;;;;;4.37;79.09;100049.84;226939;1200;139883;-67
2021/11/13 19:32:22;;;;;;;75.30;34.70;;;;;;;4.36;79.21;100051.58;227107;1200;140963;-68
2021/11/13 19:37:33;;;;;;;68.40;37.50;;;;;;;4.35;79.25;100056.23;227875;1199;143086;-67
2021/11/13 19:42:37;;;;;;;65.10;33.20;;;;;;;4.31;79.40;100064.02;227071;1199;140327;-68
2021/11/13 19:47:42;;;;;;;68.50;34.50;;;;;;;4.24;79.45;100063.23;226372;1200;142738;-68
2021/11/13 19:52:47;;;;;;;69.10;35.40;;;;;;;4.26;79.45;100057.45;225787;1200;139990;-67
2021/11/13 19:57:51;;;;;;;68.00;34.80;;;;;;;4.23;79.38;100060.98;226220;1200;140694;-68
2021/11/13 20:02:54;;;;;;;66.50;34.00;;;;;;;4.06;79.04;100064.70;226820;1200;142021;-66
2021/11/13 20:07:58;;;;;;;75.50;34.90;;;;;;;3.96;79.19;100063.17;226225;1200;141303;-69
2021/11/13 20:13:05;;;;;;;77.20;37.50;;;;;;;3.98;79.56;100068.95;227875;1200;141307;-70
2021/11/13 20:18:09;;;;;;;67.40;35.80;;;;;;;3.93;79.53;100073.00;227719;1199;139815;-69
2021/11/13 20:23:14;;;;;;;72.30;32.70;;;;;;;3.89;79.61;100074.20;228890;1199;140401;-68
2021/11/13 20:28:18;;;;;;;67.40;33.10;;;;;;;3.95;79.77;100074.54;228972;1199;140515;-67
2021/11/13 20:33:25;;;;;;;75.70;35.90;;;;;;;3.95;79.53;100072.41;228930;1200;139769;-70
2021/11/13 20:38:32;;;;;;;49.10;28.60;;;;;;;3.89;79.58;100068.08;229046;1199;140196;-73
2021/11/13 20:44:00;;;;;;;66.20;35.20;;;;;;;3.82;79.58;100070.29;228909;1199;139329;-70
2021/11/13 20:49:07;;;;;;;72.70;36.40;;;;;;;3.83;79.55;100070.55;228302;1199;141367;-73
2021/11/13 20:54:20;;;;;;;;;;;;;;;;;;;;;
2021/11/13 20:59:30;;;;;;;76.80;36.30;;;;;;;3.85;79.98;100068.38;228223;1199;139600;-75
2021/11/13 21:04:42;;;;;;;81.80;36.00;;;;;;;3.80;79.82;100070.58;228862;1199;141571;-70
2021/11/13 21:10:18;;;;;;;84.00;37.70;;;;;;;3.79;79.62;100071.17;228294;1199;140922;-71
2021/11/13 21:15:28;;;;;;;77.20;39.30;;;;;;;3.79;79.84;100069.59;226851;1200;141666;-71
2021/11/13 21:20:33;;;;;;;81.80;39.40;;;;;;;3.87;80.30;100078.02;226182;1200;140610;-70
2021/11/13 21:25:38;;;;;;;87.60;37.60;;;;;;;3.91;80.40;100086.48;228077;1199;139156;-72
2021/11/13 21:30:46;;;;;;;79.40;41.50;;;;;;;3.96;80.23;100083.63;227050;1199;141530;-69
2021/11/13 21:35:50;;;;;;;78.90;39.30;;;;;;;3.99;80.44;100081.05;226300;1200;139887;-69
2021/11/13 21:40:54;;;;;;;75.50;34.50;;;;;;;3.97;80.43;100076.37;228013;1199;140598;-69
2021/11/13 21:45:57;;;;;;;75.30;32.30;;;;;;;3.90;80.20;100076.73;226912;1199;142273;-67
2021/11/13 21:51:01;;;;;;;73.90;38.80;;;;;;;3.90;80.31;100074.48;227141;1199;140446;-68
2021/11/13 21:56:05;;;;;;;86.50;38.70;;;;;;;3.85;80.21;100081.70;226739;1192;140697;-69
2021/11/13 22:01:09;;;;;;;91.60;40.50;;;;;;;3.82;80.53;100090.29;226921;1200;160578;-70
2021/11/13 22:06:14;;;;;;;89.80;35.70;;;;;;;3.74;80.34;100097.30;226800;1199;140275;-69
2021/11/13 22:11:17;;;;;;;74.80;34.30;;;;;;;3.70;80.56;100115.79;227533;1200;139608;-70
2021/11/13 22:16:20;;;;;;;74.70;34.10;;;;;;;3.77;80.70;100122.78;227291;1199;140975;-68
2021/11/13 22:21:24;;;;;;;74.70;37.60;;;;;;;3.73;80.61;100117.54;226640;1199;140260;-70
2021/11/13 22:26:28;;;;;;;78.80;33.90;;;;;;;3.71;80.88;100124.61;227376;1200;141280;-70
2021/11/13 22:31:30;;;;;;;89.90;42.40;;;;;;;3.79;80.81;100131.66;228233;1199;140683;-68
2021/11/13 22:36:34;;;;;;;86.70;41.50;;;;;;;3.86;80.93;100126.61;229174;1199;140675;-71
2021/11/13 22:41:37;;;;;;;107.50;60.30;;;;;;;3.88;80.90;100125.15;229129;1199;139915;-72
2021/11/13 22:46:40;;;;;;;70.20;30.70;;;;;;;3.90;80.65;100128.83;228360;1199;140509;-69
2021/11/13 22:51:43;;;;;;;70.60;33.60;;;;;;;3.95;80.61;100126.95;228454;1199;141418;-73
2021/11/13 22:57:02;;;;;;;76.50;36.20;;;;;;;3.95;80.64;100126.95;229132;1199;142718;-71
2021/11/13 23:02:07;;;;;;;64.60;29.90;;;;;;;3.97;80.69;100129.05;228957;1199;140437;-70
2021/11/13 23:07:14;;;;;;;77.00;32.00;;;;;;;3.94;80.40;100130.79;227202;1200;139695;-69
2021/11/13 23:12:18;;;;;;;63.30;32.10;;;;;;;3.95;80.49;100135.55;227781;1199;140551;-72
2021/11/13 23:17:21;;;;;;;75.50;33.90;;;;;;;3.95;80.57;100136.27;227403;1200;139645;-70
2021/11/13 23:22:24;;;;;;;77.20;34.10;;;;;;;3.90;80.47;100139.54;226910;1199;140676;-69
2021/11/13 23:27:27;;;;;;;70.20;29.40;;;;;;;3.86;80.62;100138.88;226737;1199;140176;-67
2021/11/13 23:32:30;;;;;;;71.20;35.60;;;;;;;3.90;80.78;100141.11;226593;1199;140618;-69
2021/11/13 23:37:37;;;;;;;74.00;36.10;;;;;;;3.90;80.64;100134.26;226582;1199;140799;-70
2021/11/13 23:42:41;;;;;;;74.10;34.80;;;;;;;3.83;80.65;100136.80;226910;1199;140351;-71
2021/11/13 23:47:45;;;;;;;81.60;30.30;;;;;;;3.85;80.81;100136.98;226766;1200;140700;-70
2021/11/13 23:52:49;;;;;;;74.70;32.40;;;;;;;3.87;80.76;100134.42;226653;1199;140949;-68
2021/11/13 23:57:52;;;;;;;73.90;33.30;;;;;;;3.86;80.88;100130.84;226654;1200;140562;-71
